Beluga Flirtation — V2CE3 — position and weather

sailwx.info

Track history (hours):
 
Tides and Currents Weather Stations Pressure Air Temp Water Temp Dewpoint Dewpoint Depression Visibility Wind Speed Wind Dir Waves Ship Positions

Beluga Flirtation

Last reported at 2014-Jun-26 05:29 UTC. Time now 2014-Jul-25 23:08 UTC.
Position N 56°21' E 011°27'.
Warning: this ship's position is 29 days out of date.

Length 138 m; draft 8.3 m.

Type: Cargo ship. MMSI: 304998000.

Date/timePositionNaut miles runAvg speedWind from/ knotsBaromVisibWave heightAir tempDewpointWater temp
2014-Jun-26 05:29N 56°21' E 011°27'1112.3
2014-Jun-26 04:33N 56°31' E 011°37'1211.8
2014-Jun-26 03:33N 56°41' E 011°48'1211.6
2014-Jun-26 02:33N 56°53' E 011°47'1212.5
2014-Jun-26 01:33N 57°05' E 011°40'1212.2
2014-Jun-26 00:33N 57°16' E 011°32'1312.7
2014-Jun-25 23:33N 57°28' E 011°23'1312.5
2014-Jun-25 22:33N 57°36' E 011°06'1312.5
2014-Jun-25 21:33N 57°45' E 010°49'1211.9
2014-Jun-25 20:33N 57°47' E 010°27'1712.7
2014-Jun-25 19:13N 57°44' E 009°56'3612.9
2014-Jun-25 16:27N 57°26' E 008°58'1212.6
2014-Jun-25 15:32N 57°20' E 008°40'1512.8
2014-Jun-25 14:22N 57°12' E 008°16'1012.7
2014-Jun-25 13:33N 57°04' E 008°05'1212.4
2014-Jun-25 12:33N 56°54' E 007°52'1212.1
2014-Jun-25 11:33N 56°43' E 007°40'1212.3
2014-Jun-25 10:33N 56°33' E 007°28'1512.5
2014-Jun-25 09:23N 56°21' E 007°14'1012.3
2014-Jun-25 08:33N 56°12' E 007°04'1212.4
2014-Jun-25 07:33N 56°02' E 006°51'1312.5
2014-Jun-25 06:33N 55°51' E 006°39'1212.5
2014-Jun-25 05:33N 55°41' E 006°27'25412.1
2014-Jun-24 08:33N 51°60' E 002°55'1111.3
2014-Jun-24 07:33N 51°51' E 002°43'1110.8
2014-Jun-24 06:33N 51°43' E 002°32'1010.5
2014-Jun-24 05:33N 51°35' E 002°21'1010.4
2014-Jun-24 04:33N 51°26' E 002°11'1010.5
2014-Jun-24 03:33N 51°16' E 002°06'1010.4
2014-Jun-24 02:33N 51°10' E 001°54'1211.6
2014-Jun-24 01:33N 51°02' E 001°40'2512.1
2014-Jun-23 23:28N 50°41' E 001°18'1412.8
2014-Jun-23 22:21N 50°31' E 001°02'1112.5
2014-Jun-23 21:30N 50°28' E 000°46'1412.6
2014-Jun-23 20:23N 50°24' E 000°25'1613.2
2014-Jun-23 19:11N 50°20' E 000°00'913.9
2014-Jun-23 18:33N 50°18' W 000°12'1814.4
2014-Jun-23 17:17N 50°13' W 000°40'1314.8
2014-Jun-23 16:24N 50°09' W 000°60'1314.6
2014-Jun-23 15:32N 50°06' W 001°19'1413.7
2014-Jun-23 14:33N 50°02' W 001°39'  
Track history (hours):
 
Tides and Currents Weather Stations Pressure Air Temp Water Temp Dewpoint Dewpoint Depression Visibility Wind Speed Wind Dir Waves Ship Positions

Beluga Flirtation

Last reported at 2014-Jun-26 05:29 UTC. Time now 2014-Jul-25 23:08 UTC.
Position N 56°21' E 011°27'.
Warning: this ship's position is 29 days out of date.

Length 138 m; draft 8.3 m.

Type: Cargo ship. MMSI: 304998000.

Date/timePositionNaut miles runAvg speedWind from/ knotsBaromVisibWave heightAir tempDewpointWater temp
2014-Jun-26 05:29N 56°21' E 011°27'1112.3
2014-Jun-26 04:33N 56°31' E 011°37'1211.8
2014-Jun-26 03:33N 56°41' E 011°48'1211.6
2014-Jun-26 02:33N 56°53' E 011°47'1212.5
2014-Jun-26 01:33N 57°05' E 011°40'1212.2
2014-Jun-26 00:33N 57°16' E 011°32'1312.7
2014-Jun-25 23:33N 57°28' E 011°23'1312.5
2014-Jun-25 22:33N 57°36' E 011°06'1312.5
2014-Jun-25 21:33N 57°45' E 010°49'1211.9
2014-Jun-25 20:33N 57°47' E 010°27'1712.7
2014-Jun-25 19:13N 57°44' E 009°56'3612.9
2014-Jun-25 16:27N 57°26' E 008°58'1212.6
2014-Jun-25 15:32N 57°20' E 008°40'1512.8
2014-Jun-25 14:22N 57°12' E 008°16'1012.7
2014-Jun-25 13:33N 57°04' E 008°05'1212.4
2014-Jun-25 12:33N 56°54' E 007°52'1212.1
2014-Jun-25 11:33N 56°43' E 007°40'1212.3
2014-Jun-25 10:33N 56°33' E 007°28'1512.5
2014-Jun-25 09:23N 56°21' E 007°14'1012.3
2014-Jun-25 08:33N 56°12' E 007°04'1212.4
2014-Jun-25 07:33N 56°02' E 006°51'1312.5
2014-Jun-25 06:33N 55°51' E 006°39'1212.5
2014-Jun-25 05:33N 55°41' E 006°27'25412.1
2014-Jun-24 08:33N 51°60' E 002°55'1111.3
2014-Jun-24 07:33N 51°51' E 002°43'1110.8
2014-Jun-24 06:33N 51°43' E 002°32'1010.5
2014-Jun-24 05:33N 51°35' E 002°21'1010.4
2014-Jun-24 04:33N 51°26' E 002°11'1010.5
2014-Jun-24 03:33N 51°16' E 002°06'1010.4
2014-Jun-24 02:33N 51°10' E 001°54'1211.6
2014-Jun-24 01:33N 51°02' E 001°40'2512.1
2014-Jun-23 23:28N 50°41' E 001°18'1412.8
2014-Jun-23 22:21N 50°31' E 001°02'1112.5
2014-Jun-23 21:30N 50°28' E 000°46'1412.6
2014-Jun-23 20:23N 50°24' E 000°25'1613.2
2014-Jun-23 19:11N 50°20' E 000°00'913.9
2014-Jun-23 18:33N 50°18' W 000°12'1814.4
2014-Jun-23 17:17N 50°13' W 000°40'1314.8
2014-Jun-23 16:24N 50°09' W 000°60'1314.6
2014-Jun-23 15:32N 50°06' W 001°19'1413.7
2014-Jun-23 14:33N 50°02' W 001°39'  

Dump ship's entire track history